createdAt,value
2019-03-23T00:01:41.544Z,8.43
2019-03-23T00:04:13.025Z,8.08
2019-03-23T00:06:44.250Z,8.28
2019-03-23T00:09:15.608Z,7.95
2019-03-23T00:11:46.950Z,7.97
2019-03-23T00:14:18.254Z,8.70
2019-03-23T00:16:49.514Z,7.97
2019-03-23T00:19:20.808Z,8.90
2019-03-23T00:21:53.327Z,8.87
2019-03-23T00:24:24.618Z,8.40
2019-03-23T00:26:55.973Z,9.93
2019-03-23T00:29:27.251Z,10.07
2019-03-23T00:31:58.597Z,9.07
2019-03-23T00:34:29.819Z,9.67
2019-03-23T00:37:01.230Z,10.17
2019-03-23T00:39:32.485Z,10.90
2019-03-23T00:42:03.771Z,9.63
2019-03-23T00:44:35.006Z,10.43
2019-03-23T00:47:06.351Z,10.33
2019-03-23T00:49:37.582Z,10.03
2019-03-23T00:52:08.929Z,10.10
2019-03-23T00:54:40.161Z,10.47
2019-03-23T00:57:11.503Z,10.73
2019-03-23T00:59:42.805Z,11.10
2019-03-23T01:02:14.251Z,12.13
2019-03-23T01:04:45.588Z,11.60
2019-03-23T01:07:29.873Z,12.00
2019-03-23T01:10:01.170Z,11.17
2019-03-23T01:12:32.581Z,11.70
2019-03-23T01:15:05.852Z,12.17
2019-03-23T01:17:37.289Z,10.77
2019-03-23T01:20:13.458Z,11.53
2019-03-23T01:22:44.731Z,11.83
2019-03-23T01:25:16.034Z,11.23
2019-03-23T01:27:47.302Z,11.43
2019-03-23T01:30:19.596Z,11.83
2019-03-23T01:32:50.964Z,11.53
2019-03-23T01:35:22.275Z,12.37
2019-03-23T01:37:53.518Z,12.00
2019-03-23T01:40:24.883Z,12.80
2019-03-23T01:42:57.871Z,13.23
2019-03-23T01:45:29.167Z,12.10
2019-03-23T01:48:00.439Z,12.17
2019-03-23T01:50:31.672Z,11.77
2019-03-23T01:53:02.947Z,11.90
2019-03-23T01:55:34.176Z,11.90
2019-03-23T01:58:05.520Z,11.87
2019-03-23T02:00:38.039Z,11.53
2019-03-23T02:03:09.523Z,11.87
2019-03-23T02:05:40.824Z,11.50
2019-03-23T02:08:12.199Z,11.90
2019-03-23T02:10:43.432Z,12.33
2019-03-23T02:13:14.730Z,11.67
2019-03-23T02:15:46.053Z,10.90
2019-03-23T02:18:17.381Z,12.00
2019-03-23T02:20:48.810Z,12.23
2019-03-23T02:23:21.071Z,11.90
2019-03-23T02:25:52.414Z,12.27
2019-03-23T02:28:23.734Z,12.00
2019-03-23T02:30:55.106Z,12.13
2019-03-23T02:33:26.338Z,12.57
2019-03-23T02:35:57.691Z,11.90
2019-03-23T02:38:30.007Z,11.13
2019-03-23T02:41:01.249Z,12.07
2019-03-23T02:43:32.764Z,11.87
2019-03-23T02:46:04.005Z,13.37
2019-03-23T02:48:35.285Z,10.30
2019-03-23T02:51:06.610Z,12.33
2019-03-23T02:53:37.960Z,11.63
2019-03-23T02:56:09.202Z,11.77
2019-03-23T02:58:41.688Z,12.70
2019-03-23T03:01:12.906Z,10.50
2019-03-23T03:03:44.259Z,10.97
2019-03-23T03:06:15.568Z,11.47
2019-03-23T03:08:46.948Z,11.27
2019-03-23T03:11:18.256Z,11.30
2019-03-23T03:13:49.545Z,9.93
2019-03-23T03:16:20.922Z,11.00
2019-03-23T03:18:52.257Z,9.90
2019-03-23T03:21:23.735Z,10.30
2019-03-23T03:23:55.092Z,9.90
2019-03-23T03:26:26.405Z,10.70
2019-03-23T03:28:57.818Z,12.40
2019-03-23T03:31:29.177Z,11.03
2019-03-23T03:34:00.590Z,10.87
2019-03-23T03:36:33.020Z,11.23
2019-03-23T03:39:05.993Z,10.80
2019-03-23T03:41:37.670Z,10.57
2019-03-23T03:44:09.089Z,10.90
2019-03-23T03:46:40.325Z,11.17
2019-03-23T03:49:12.906Z,10.37
2019-03-23T03:51:44.409Z,11.30
2019-03-23T03:54:15.698Z,10.40
2019-03-23T03:56:46.967Z,10.53
2019-03-23T03:59:18.412Z,11.23
2019-03-23T04:01:55.786Z,10.83
2019-03-23T04:04:27.194Z,12.20
2019-03-23T04:06:58.509Z,12.20
2019-03-23T04:09:29.797Z,15.27
2019-03-23T04:12:01.232Z,15.70
2019-03-23T04:14:32.748Z,14.43
2019-03-23T04:17:06.641Z,15.20
2019-03-23T04:19:38.012Z,12.40
2019-03-23T04:22:09.316Z,14.13
2019-03-23T04:24:40.616Z,15.47
2019-03-23T04:27:11.884Z,15.53
2019-03-23T04:29:43.154Z,15.60
2019-03-23T04:32:14.437Z,14.20
2019-03-23T04:34:45.668Z,15.93
2019-03-23T04:37:18.089Z,15.83
2019-03-23T04:39:49.325Z,14.07
2019-03-23T04:42:20.700Z,15.87
2019-03-23T04:44:52.044Z,14.33
2019-03-23T04:47:23.360Z,13.80
2019-03-23T04:49:54.632Z,13.33
2019-03-23T04:52:26.041Z,13.97
2019-03-23T04:54:57.323Z,14.60
2019-03-23T04:57:28.657Z,14.87
2019-03-23T05:00:01.118Z,14.10
2019-03-23T05:02:32.564Z,14.10
2019-03-23T05:05:04.874Z,14.93
2019-03-23T05:07:36.185Z,14.60
2019-03-23T05:10:10.152Z,14.23
2019-03-23T05:12:41.454Z,16.03
2019-03-23T05:15:14.824Z,16.00
2019-03-23T05:17:46.058Z,14.17
2019-03-23T05:20:29.593Z,14.43
2019-03-23T05:23:00.968Z,16.23
2019-03-23T05:25:34.363Z,16.10
2019-03-23T05:28:05.746Z,15.40
2019-03-23T05:30:37.093Z,16.80
2019-03-23T05:33:08.352Z,16.70
2019-03-23T05:35:39.685Z,15.13
2019-03-23T05:38:11.107Z,16.77
2019-03-23T05:40:42.585Z,17.70
2019-03-23T05:43:13.822Z,15.27
2019-03-23T05:45:45.128Z,17.07
2019-03-23T05:48:16.377Z,20.90
2019-03-23T05:50:47.729Z,18.93
2019-03-23T05:53:18.966Z,17.00
2019-03-23T05:55:50.341Z,17.80
2019-03-23T05:58:21.596Z,16.50
2019-03-23T06:00:53.012Z,14.93
2019-03-23T06:03:24.324Z,15.27
2019-03-23T06:05:57.665Z,15.07
2019-03-23T06:08:28.901Z,14.80
2019-03-23T06:11:00.226Z,14.83
2019-03-23T06:13:31.459Z,13.67
2019-03-23T06:16:03.877Z,15.17
2019-03-23T06:18:35.115Z,15.33
2019-03-23T06:21:06.488Z,15.67
2019-03-23T06:23:37.724Z,15.43
2019-03-23T06:26:09.802Z,16.17
2019-03-23T06:28:41.080Z,16.20
2019-03-23T06:31:12.459Z,16.60
2019-03-23T06:33:44.902Z,16.77
2019-03-23T06:36:16.225Z,17.77
2019-03-23T06:38:47.604Z,17.47
2019-03-23T06:41:19.014Z,16.53
2019-03-23T06:43:50.315Z,17.27
2019-03-23T06:46:21.663Z,17.57
2019-03-23T06:48:52.901Z,17.03
2019-03-23T06:51:24.203Z,16.90
2019-03-23T06:53:55.557Z,17.13
2019-03-23T06:56:26.859Z,16.33
2019-03-23T06:58:58.222Z,17.73
2019-03-23T07:01:29.688Z,18.07
2019-03-23T07:04:00.968Z,18.40
2019-03-23T07:06:32.272Z,17.60
2019-03-23T07:09:15.784Z,18.53
2019-03-23T07:11:40.361Z,18.43
2019-03-23T07:14:11.576Z,18.53
2019-03-23T07:16:42.956Z,18.03
2019-03-23T07:19:14.199Z,18.10
2019-03-23T07:21:45.537Z,16.73
2019-03-23T07:24:16.863Z,18.33
2019-03-23T07:26:51.058Z,17.73
2019-03-23T07:29:22.368Z,19.37
2019-03-23T07:31:53.709Z,18.67
2019-03-23T07:34:25.061Z,18.67
2019-03-23T07:36:56.301Z,18.93
2019-03-23T07:39:49.075Z,18.47
2019-03-23T07:42:20.310Z,18.57
2019-03-23T07:44:51.555Z,18.53
2019-03-23T07:47:22.858Z,17.43
2019-03-23T07:49:54.160Z,18.67
2019-03-23T07:52:25.447Z,18.40
2019-03-23T07:54:57.943Z,18.10
2019-03-23T07:57:29.251Z,17.43
2019-03-23T08:00:00.518Z,20.07
2019-03-23T08:02:31.829Z,18.17
2019-03-23T08:05:03.263Z,17.73
2019-03-23T08:07:34.567Z,17.67
2019-03-23T08:10:08.333Z,17.70
2019-03-23T08:12:39.578Z,18.00
2019-03-23T08:15:11.253Z,17.77
2019-03-23T08:17:42.852Z,17.03
2019-03-23T08:20:14.160Z,18.23
2019-03-23T08:22:45.616Z,19.00
2019-03-23T08:25:16.989Z,17.50
2019-03-23T08:27:49.751Z,18.80
2019-03-23T08:30:21.137Z,18.07
2019-03-23T08:32:52.591Z,18.32
2019-03-23T08:35:23.992Z,17.17
2019-03-23T08:37:56.414Z,18.67
2019-03-23T08:40:27.775Z,17.80
2019-03-23T08:42:59.207Z,18.13
2019-03-23T08:45:30.580Z,17.73
2019-03-23T08:48:02.439Z,18.25
2019-03-23T08:50:33.929Z,18.15
2019-03-23T08:53:05.479Z,19.98
2019-03-23T08:55:36.985Z,18.02
2019-03-23T08:58:08.233Z,19.27
2019-03-23T09:00:39.671Z,18.48
2019-03-23T09:03:11.024Z,18.70
2019-03-23T09:05:42.374Z,19.23
2019-03-23T09:08:13.826Z,19.15
2019-03-23T09:10:45.244Z,19.02
2019-03-23T09:13:16.506Z,19.27
2019-03-23T09:15:47.950Z,18.98
2019-03-23T09:18:20.961Z,20.05
2019-03-23T09:20:52.358Z,21.23
2019-03-23T09:23:23.914Z,20.62
2019-03-23T09:25:55.291Z,20.50
2019-03-23T09:28:26.775Z,20.57
2019-03-23T09:30:58.029Z,21.93
2019-03-23T09:33:29.481Z,21.05
2019-03-23T09:36:02.059Z,20.62
2019-03-23T09:38:33.475Z,20.85
2019-03-23T09:41:04.862Z,21.52
2019-03-23T09:43:36.309Z,19.77
2019-03-23T09:46:09.366Z,21.27
2019-03-23T09:48:40.710Z,20.80
2019-03-23T09:51:12.076Z,21.07
2019-03-23T09:53:43.328Z,20.85
2019-03-23T09:56:14.707Z,21.27
2019-03-23T09:58:46.189Z,21.48
2019-03-23T10:01:18.831Z,22.60
2019-03-23T10:03:50.300Z,20.82
2019-03-23T10:06:22.830Z,22.75
2019-03-23T10:09:01.210Z,23.38
2019-03-23T10:11:34.004Z,23.42
2019-03-23T10:14:05.449Z,23.52
2019-03-23T10:16:36.707Z,24.23
2019-03-23T10:19:08.075Z,24.57
2019-03-23T10:21:40.955Z,24.98
2019-03-23T10:24:13.522Z,26.62
2019-03-23T10:26:44.850Z,23.95
2019-03-23T10:29:17.152Z,25.20
2019-03-23T10:31:48.522Z,27.52
2019-03-23T10:34:19.808Z,26.62
2019-03-23T10:36:51.133Z,26.17
2019-03-23T10:39:22.760Z,26.20
2019-03-23T10:41:54.018Z,26.82
2019-03-23T10:44:25.327Z,28.87
2019-03-23T10:46:56.674Z,28.40
2019-03-23T10:49:27.995Z,28.40
2019-03-23T10:51:59.318Z,29.23
2019-03-23T10:54:30.683Z,30.48
2019-03-23T10:57:02.195Z,28.75
2019-03-23T10:59:33.455Z,29.05
2019-03-23T11:02:04.949Z,30.85
2019-03-23T11:04:36.267Z,30.00
2019-03-23T11:07:07.636Z,31.20
2019-03-23T11:09:38.945Z,36.40
2019-03-23T11:12:10.244Z,31.45
2019-03-23T11:14:41.557Z,30.92
2019-03-23T11:17:12.882Z,31.68
2019-03-23T11:19:44.237Z,31.48
2019-03-23T11:22:15.520Z,31.80
2019-03-23T11:24:46.850Z,33.40
2019-03-23T11:27:18.110Z,34.10
2019-03-23T11:29:49.415Z,36.00
2019-03-23T11:32:20.737Z,33.23
2019-03-23T11:34:52.533Z,33.10
2019-03-23T11:37:23.987Z,33.48
2019-03-23T11:39:57.412Z,34.25
2019-03-23T11:42:30.187Z,35.17
2019-03-23T11:45:01.493Z,35.28
2019-03-23T11:47:50.699Z,35.15
2019-03-23T11:50:22.328Z,36.28
2019-03-23T11:52:53.719Z,35.78
2019-03-23T11:55:31.359Z,37.08
2019-03-23T11:58:02.842Z,38.80
2019-03-23T12:00:36.163Z,37.15
2019-03-23T12:03:07.657Z,38.20
2019-03-23T12:05:38.934Z,36.55
2019-03-23T12:08:10.728Z,37.80
2019-03-23T12:10:43.085Z,37.25
2019-03-23T12:13:21.657Z,38.15
2019-03-23T12:15:52.979Z,40.30
2019-03-23T12:18:24.703Z,39.42
2019-03-23T12:20:59.904Z,40.17
2019-03-23T12:23:31.347Z,39.75
2019-03-23T12:26:02.925Z,39.08
2019-03-23T12:28:36.862Z,41.60
2019-03-23T12:31:10.785Z,39.67
2019-03-23T12:33:43.878Z,39.30
2019-03-23T12:36:16.679Z,38.25
2019-03-23T12:38:48.185Z,40.45
2019-03-23T12:41:23.300Z,40.43
2019-03-23T12:43:54.646Z,40.08
2019-03-23T12:46:27.974Z,39.73
2019-03-23T12:48:59.503Z,41.80
2019-03-23T12:51:30.966Z,40.73
2019-03-23T12:54:02.439Z,39.25
2019-03-23T12:56:35.420Z,40.48
2019-03-23T12:59:06.752Z,37.75
2019-03-23T13:04:08.733Z,37.98
2019-03-23T13:06:40.203Z,37.48
2019-03-23T13:09:12.683Z,40.40
2019-03-23T13:11:57.254Z,37.78
2019-03-23T13:14:28.555Z,37.17
2019-03-23T13:16:59.804Z,35.75
2019-03-23T13:19:31.287Z,36.00
2019-03-23T13:22:02.682Z,35.45
2019-03-23T13:24:34.139Z,37.23
2019-03-23T13:27:08.449Z,35.92
2019-03-23T13:29:42.798Z,38.15
2019-03-23T13:32:18.679Z,36.05
2019-03-23T13:34:50.458Z,37.53
2019-03-23T13:37:21.877Z,37.85
2019-03-23T13:39:53.309Z,38.55
2019-03-23T13:42:24.826Z,34.92
2019-03-23T13:44:56.268Z,34.30
2019-03-23T13:47:27.560Z,35.05
2019-03-23T13:49:59.015Z,37.23
2019-03-23T13:52:30.278Z,36.38
2019-03-23T13:55:01.573Z,34.90
2019-03-23T13:57:32.965Z,36.55
2019-03-23T14:00:07.307Z,36.60
2019-03-23T14:02:41.778Z,35.35
2019-03-23T14:05:16.253Z,37.45
2019-03-23T14:07:47.184Z,37.00
2019-03-23T14:10:18.909Z,34.43
2019-03-23T14:12:51.580Z,36.25
2019-03-23T14:15:23.893Z,36.80
2019-03-23T14:17:55.400Z,36.20
2019-03-23T14:20:26.815Z,36.88
2019-03-23T14:23:02.675Z,36.45
2019-03-23T14:25:31.377Z,34.53
2019-03-23T14:28:03.763Z,36.65
2019-03-23T14:30:35.405Z,35.33
2019-03-23T14:33:06.884Z,36.73
2019-03-23T14:35:38.201Z,35.90
2019-03-23T14:38:09.582Z,38.67
2019-03-23T14:40:41.434Z,34.25
2019-03-23T14:43:14.768Z,36.93
2019-03-23T14:45:46.094Z,36.88
2019-03-23T14:48:19.817Z,36.20
2019-03-23T14:50:51.142Z,33.85
2019-03-23T14:53:24.573Z,33.40
2019-03-23T14:55:56.296Z,35.65
2019-03-23T15:00:04.362Z,35.13
2019-03-23T15:02:24.096Z,33.42
2019-03-23T15:04:55.658Z,33.85
2019-03-23T15:07:27.310Z,35.20
2019-03-23T15:10:00.411Z,33.67
2019-03-23T15:12:37.540Z,34.63
2019-03-23T15:15:09.744Z,35.95
2019-03-23T15:17:48.734Z,35.73
2019-03-23T15:20:16.359Z,35.08
2019-03-23T15:22:47.853Z,34.85
2019-03-23T15:25:19.713Z,34.13
2019-03-23T15:27:51.046Z,39.20
2019-03-23T15:30:22.875Z,37.85
2019-03-23T15:32:55.270Z,37.03
2019-03-23T15:35:26.663Z,39.25
2019-03-23T15:37:58.917Z,39.45
2019-03-23T15:40:31.658Z,36.68
2019-03-23T15:43:03.056Z,36.70
2019-03-23T15:45:36.387Z,38.17
2019-03-23T15:48:07.758Z,37.25
2019-03-23T15:50:39.204Z,39.88
2019-03-23T15:53:10.566Z,38.23
2019-03-23T15:55:42.023Z,40.03
2019-03-23T15:58:13.539Z,39.42
2019-03-23T16:00:48.244Z,38.67
2019-03-23T16:03:19.699Z,40.23
2019-03-23T16:05:51.143Z,40.17
2019-03-23T16:08:24.013Z,38.58
2019-03-23T16:10:55.707Z,39.33
2019-03-23T16:13:27.207Z,40.05
2019-03-23T16:15:58.595Z,38.92
2019-03-23T16:18:30.199Z,39.42
2019-03-23T16:21:01.656Z,40.10
2019-03-23T16:23:33.119Z,38.67
2019-03-23T16:26:04.689Z,39.45
2019-03-23T16:28:36.065Z,37.65
2019-03-23T16:31:07.481Z,41.00
2019-03-23T16:33:39.213Z,37.50
2019-03-23T16:36:12.455Z,38.23
2019-03-23T16:38:45.430Z,36.38
2019-03-23T16:41:16.725Z,37.33
2019-03-23T16:43:49.636Z,38.28
2019-03-23T16:46:21.083Z,36.65
2019-03-23T16:48:52.409Z,40.10
2019-03-23T16:51:24.110Z,38.78
2019-03-23T16:53:55.653Z,37.55
2019-03-23T16:56:28.542Z,40.38
2019-03-23T16:58:59.977Z,38.83
2019-03-23T17:01:31.398Z,38.45
2019-03-23T17:04:02.691Z,40.35
2019-03-23T17:06:34.816Z,40.33
2019-03-23T17:09:06.995Z,40.60
2019-03-23T17:11:38.610Z,40.38
2019-03-23T17:14:09.931Z,40.98
2019-03-23T17:16:42.951Z,40.15
2019-03-23T17:19:15.854Z,40.50
2019-03-23T17:21:47.291Z,40.23
2019-03-23T17:24:18.766Z,41.60
2019-03-23T17:26:50.791Z,40.00
2019-03-23T17:29:25.618Z,40.88
2019-03-23T17:31:57.221Z,42.80
2019-03-23T17:34:30.550Z,41.20
2019-03-23T17:37:03.174Z,40.12
2019-03-23T17:39:36.606Z,43.25
2019-03-23T17:42:08.282Z,42.90
2019-03-23T17:44:42.165Z,42.45
2019-03-23T17:47:13.776Z,41.37
2019-03-23T17:49:47.202Z,43.35
2019-03-23T17:52:18.661Z,43.78
2019-03-23T17:54:49.982Z,44.75
2019-03-23T17:57:23.069Z,46.35
2019-03-23T17:59:54.512Z,45.12
2019-03-23T18:02:38.318Z,46.02
2019-03-23T18:05:12.421Z,46.55
2019-03-23T18:07:44.093Z,44.65
2019-03-23T18:10:15.783Z,46.40
2019-03-23T18:12:47.319Z,44.15
2019-03-23T18:15:18.790Z,45.43
2019-03-23T18:17:51.259Z,47.03
2019-03-23T18:20:22.903Z,45.98
2019-03-23T18:22:54.297Z,45.92
2019-03-23T18:25:25.747Z,46.77
2019-03-23T18:27:57.117Z,45.92
2019-03-23T18:30:43.414Z,46.55
2019-03-23T18:33:14.867Z,44.83
2019-03-23T18:35:46.206Z,45.45
2019-03-23T18:38:17.830Z,47.88
2019-03-23T18:40:49.989Z,49.30
2019-03-23T18:43:27.353Z,46.37
2019-03-23T18:45:54.532Z,46.58
2019-03-23T18:48:25.866Z,48.20
2019-03-23T18:50:57.326Z,48.30
2019-03-23T18:53:28.709Z,49.25
2019-03-23T18:56:00.490Z,49.75
2019-03-23T18:58:32.091Z,49.58
2019-03-23T19:01:03.686Z,51.37
2019-03-23T19:03:35.149Z,51.58
2019-03-23T19:06:06.622Z,52.03
2019-03-23T19:08:38.151Z,51.25
2019-03-23T19:11:15.025Z,50.70
2019-03-23T19:13:46.704Z,52.15
2019-03-23T19:16:18.946Z,54.73
2019-03-23T19:18:50.430Z,54.33
2019-03-23T19:21:21.678Z,56.40
2019-03-23T19:23:53.321Z,54.60
2019-03-23T19:26:25.036Z,52.75
2019-03-23T19:28:56.594Z,52.67
2019-03-23T19:31:28.052Z,55.25
2019-03-23T19:33:59.345Z,53.95
2019-03-23T19:36:30.658Z,53.98
2019-03-23T19:39:07.460Z,55.98
2019-03-23T19:41:38.934Z,53.35
2019-03-23T19:44:10.380Z,55.00
2019-03-23T19:46:41.684Z,55.10
2019-03-23T19:49:14.780Z,53.00
2019-03-23T19:51:46.014Z,52.27
2019-03-23T19:54:17.424Z,52.38
2019-03-23T19:56:48.771Z,52.95
2019-03-23T19:59:21.709Z,53.13
2019-03-23T20:01:52.958Z,53.83
2019-03-23T20:04:24.485Z,51.28
2019-03-23T20:06:55.790Z,52.55
2019-03-23T20:09:27.198Z,51.98
2019-03-23T20:11:58.534Z,51.60
2019-03-23T20:14:29.953Z,54.05
2019-03-23T20:17:01.395Z,52.00
2019-03-23T20:19:33.296Z,51.18
2019-03-23T20:22:04.707Z,52.40
2019-03-23T20:24:37.134Z,52.40
2019-03-23T20:27:08.458Z,52.60
2019-03-23T20:29:39.894Z,50.73
2019-03-23T20:32:11.306Z,50.80
2019-03-23T20:34:42.683Z,52.15
2019-03-23T20:37:14.275Z,51.98
2019-03-23T20:39:47.631Z,51.50
2019-03-23T20:42:19.851Z,52.20
2019-03-23T20:44:51.143Z,50.90
2019-03-23T20:47:22.898Z,53.40
2019-03-23T20:49:54.516Z,51.15
2019-03-23T20:52:25.974Z,51.15
2019-03-23T20:54:57.530Z,51.00
2019-03-23T20:57:37.710Z,48.65
2019-03-23T21:00:09.563Z,50.40
2019-03-23T21:02:40.872Z,50.83
2019-03-23T21:05:12.677Z,51.13
2019-03-23T21:07:44.272Z,49.65
2019-03-23T21:10:15.839Z,47.88
2019-03-23T21:12:48.570Z,46.50
2019-03-23T21:15:21.481Z,45.25
2019-03-23T21:17:52.966Z,46.28
2019-03-23T21:20:25.978Z,48.83
2019-03-23T21:22:57.234Z,46.73
2019-03-23T21:25:28.666Z,46.55
2019-03-23T21:27:59.957Z,45.52
2019-03-23T21:30:31.339Z,43.13
2019-03-23T21:33:02.677Z,45.78
2019-03-23T21:35:33.980Z,44.70
2019-03-23T21:38:05.483Z,43.48
2019-03-23T21:40:37.013Z,43.28
2019-03-23T21:43:08.478Z,44.33
2019-03-23T21:45:39.839Z,42.13
2019-03-23T21:48:11.078Z,42.30
2019-03-23T21:50:47.476Z,43.20
2019-03-23T21:53:15.331Z,42.35
2019-03-23T21:55:46.751Z,41.83
2019-03-23T21:58:18.059Z,42.62
2019-03-23T22:00:49.443Z,40.88
2019-03-23T22:03:20.681Z,40.63
2019-03-23T22:05:52.058Z,40.67
2019-03-23T22:08:23.435Z,40.85
2019-03-23T22:10:54.796Z,40.98
2019-03-23T22:13:26.079Z,40.45
2019-03-23T22:15:57.465Z,39.85
2019-03-23T22:18:28.713Z,38.58
2019-03-23T22:21:00.087Z,40.20
2019-03-23T22:23:32.493Z,40.35
2019-03-23T22:26:03.774Z,38.50
2019-03-23T22:28:36.098Z,36.95
2019-03-23T22:31:07.563Z,39.15
2019-03-23T22:33:38.851Z,35.95
2019-03-23T22:36:10.224Z,37.67
2019-03-23T22:38:41.966Z,37.03
2019-03-23T22:41:13.331Z,36.50
2019-03-23T22:43:44.755Z,36.05
2019-03-23T22:46:16.034Z,36.70
2019-03-23T22:48:47.501Z,35.45
2019-03-23T22:51:19.022Z,34.83
2019-03-23T22:53:55.195Z,34.75
2019-03-23T22:56:25.981Z,34.75
2019-03-23T22:58:57.223Z,33.10
2019-03-23T23:01:28.590Z,34.18
2019-03-23T23:04:00.098Z,33.58
2019-03-23T23:06:31.519Z,32.45
2019-03-23T23:09:02.831Z,31.73
2019-03-23T23:11:35.206Z,33.02
2019-03-23T23:14:06.652Z,32.05
2019-03-23T23:16:38.012Z,32.13
2019-03-23T23:19:09.251Z,30.82
2019-03-23T23:21:40.625Z,32.00
2019-03-23T23:24:11.866Z,32.03
2019-03-23T23:26:43.226Z,30.12
2019-03-23T23:29:14.537Z,32.00
2019-03-23T23:31:45.901Z,31.48
2019-03-23T23:34:17.212Z,32.17
2019-03-23T23:36:48.618Z,30.55
2019-03-23T23:39:20.924Z,31.77
2019-03-23T23:41:52.276Z,31.65
2019-03-23T23:44:23.585Z,31.42
2019-03-23T23:46:54.968Z,31.50
2019-03-23T23:49:26.324Z,31.30
2019-03-23T23:51:57.634Z,32.23
2019-03-23T23:54:28.928Z,32.17
2019-03-23T23:57:00.351Z,29.92
2019-03-23T23:59:31.753Z,30.23
